sensor_id;sensor_type;location;lat;lon;timestamp;P1;durP1;ratioP1;P2;durP2;ratioP2
15383;SDS011;7790;53.022;12.968;2024-03-25T00:02:19;0.70;;;0.70;;
15383;SDS011;7790;53.022;12.968;2024-03-25T00:06:20;0.50;;;0.50;;
15383;SDS011;7790;53.022;12.968;2024-03-25T00:10:21;0.80;;;0.63;;
15383;SDS011;7790;53.022;12.968;2024-03-25T00:14:22;0.70;;;0.60;;
15383;SDS011;7790;53.022;12.968;2024-03-25T00:18:23;0.50;;;0.50;;
15383;SDS011;7790;53.022;12.968;2024-03-25T00:22:24;0.50;;;0.50;;
15383;SDS011;7790;53.022;12.968;2024-03-25T00:26:27;0.60;;;0.60;;
15383;SDS011;7790;53.022;12.968;2024-03-25T00:30:28;0.60;;;0.40;;
15383;SDS011;7790;53.022;12.968;2024-03-25T00:34:29;0.60;;;0.60;;
15383;SDS011;7790;53.022;12.968;2024-03-25T00:38:30;0.90;;;0.57;;
15383;SDS011;7790;53.022;12.968;2024-03-25T00:42:30;0.50;;;0.50;;
15383;SDS011;7790;53.022;12.968;2024-03-25T00:46:31;0.50;;;0.40;;
15383;SDS011;7790;53.022;12.968;2024-03-25T00:50:32;0.50;;;0.50;;
15383;SDS011;7790;53.022;12.968;2024-03-25T00:54:33;0.60;;;0.60;;
15383;SDS011;7790;53.022;12.968;2024-03-25T00:58:34;1.37;;;0.50;;
15383;SDS011;7790;53.022;12.968;2024-03-25T01:02:34;0.57;;;0.50;;
15383;SDS011;7790;53.022;12.968;2024-03-25T01:06:35;0.30;;;0.30;;
15383;SDS011;7790;53.022;12.968;2024-03-25T01:10:36;0.50;;;0.50;;
15383;SDS011;7790;53.022;12.968;2024-03-25T01:14:37;0.60;;;0.60;;
15383;SDS011;7790;53.022;12.968;2024-03-25T01:18:38;0.50;;;0.50;;
15383;SDS011;7790;53.022;12.968;2024-03-25T01:22:39;0.40;;;0.40;;
15383;SDS011;7790;53.022;12.968;2024-03-25T01:26:40;0.60;;;0.50;;
15383;SDS011;7790;53.022;12.968;2024-03-25T01:30:41;0.50;;;0.50;;
15383;SDS011;7790;53.022;12.968;2024-03-25T01:34:42;0.50;;;0.50;;
15383;SDS011;7790;53.022;12.968;2024-03-25T01:38:43;0.27;;;0.27;;
15383;SDS011;7790;53.022;12.968;2024-03-25T01:42:54;0.57;;;0.57;;
15383;SDS011;7790;53.022;12.968;2024-03-25T01:47:04;0.30;;;0.30;;
15383;SDS011;7790;53.022;12.968;2024-03-25T01:51:05;0.40;;;0.40;;
15383;SDS011;7790;53.022;12.968;2024-03-25T01:55:07;0.40;;;0.40;;
15383;SDS011;7790;53.022;12.968;2024-03-25T01:59:13;0.50;;;0.50;;
15383;SDS011;7790;53.022;12.968;2024-03-25T02:03:16;0.40;;;0.40;;
15383;SDS011;7790;53.022;12.968;2024-03-25T02:07:17;0.33;;;0.33;;
15383;SDS011;7790;53.022;12.968;2024-03-25T02:11:19;0.40;;;0.40;;
15383;SDS011;7790;53.022;12.968;2024-03-25T02:15:20;0.50;;;0.50;;
15383;SDS011;7790;53.022;12.968;2024-03-25T02:19:22;0.50;;;0.50;;
15383;SDS011;7790;53.022;12.968;2024-03-25T02:23:24;0.60;;;0.60;;
15383;SDS011;7790;53.022;12.968;2024-03-25T02:27:28;0.60;;;0.60;;
15383;SDS011;7790;53.022;12.968;2024-03-25T02:31:32;0.60;;;0.60;;
15383;SDS011;7790;53.022;12.968;2024-03-25T02:35:33;1.53;;;0.60;;
15383;SDS011;7790;53.022;12.968;2024-03-25T02:39:34;0.53;;;0.53;;
15383;SDS011;7790;53.022;12.968;2024-03-25T02:43:36;0.70;;;0.70;;
15383;SDS011;7790;53.022;12.968;2024-03-25T02:47:37;0.63;;;0.50;;
15383;SDS011;7790;53.022;12.968;2024-03-25T02:51:37;0.43;;;0.43;;
15383;SDS011;7790;53.022;12.968;2024-03-25T02:55:38;0.60;;;0.60;;
15383;SDS011;7790;53.022;12.968;2024-03-25T02:59:39;0.50;;;0.50;;
15383;SDS011;7790;53.022;12.968;2024-03-25T03:03:41;0.40;;;0.40;;
15383;SDS011;7790;53.022;12.968;2024-03-25T03:07:42;0.60;;;0.60;;
15383;SDS011;7790;53.022;12.968;2024-03-25T03:11:43;0.93;;;0.63;;
15383;SDS011;7790;53.022;12.968;2024-03-25T03:15:44;0.47;;;0.43;;
15383;SDS011;7790;53.022;12.968;2024-03-25T03:19:45;0.50;;;0.50;;
15383;SDS011;7790;53.022;12.968;2024-03-25T03:23:46;0.67;;;0.60;;
15383;SDS011;7790;53.022;12.968;2024-03-25T03:27:47;0.50;;;0.50;;
15383;SDS011;7790;53.022;12.968;2024-03-25T03:31:47;0.60;;;0.60;;
15383;SDS011;7790;53.022;12.968;2024-03-25T03:35:49;0.80;;;0.80;;
15383;SDS011;7790;53.022;12.968;2024-03-25T03:39:50;0.80;;;0.80;;
15383;SDS011;7790;53.022;12.968;2024-03-25T03:43:50;0.60;;;0.60;;
15383;SDS011;7790;53.022;12.968;2024-03-25T03:47:51;0.70;;;0.70;;
15383;SDS011;7790;53.022;12.968;2024-03-25T03:51:52;0.70;;;0.70;;
15383;SDS011;7790;53.022;12.968;2024-03-25T03:55:53;0.80;;;0.80;;
15383;SDS011;7790;53.022;12.968;2024-03-25T03:59:58;0.77;;;0.77;;
15383;SDS011;7790;53.022;12.968;2024-03-25T04:03:58;0.43;;;0.43;;
15383;SDS011;7790;53.022;12.968;2024-03-25T04:07:59;0.60;;;0.60;;
15383;SDS011;7790;53.022;12.968;2024-03-25T04:12:00;0.57;;;0.57;;
15383;SDS011;7790;53.022;12.968;2024-03-25T04:16:04;0.50;;;0.50;;
15383;SDS011;7790;53.022;12.968;2024-03-25T04:20:06;0.43;;;0.43;;
15383;SDS011;7790;53.022;12.968;2024-03-25T04:24:10;0.90;;;0.50;;
15383;SDS011;7790;53.022;12.968;2024-03-25T04:28:11;0.60;;;0.60;;
15383;SDS011;7790;53.022;12.968;2024-03-25T04:32:12;0.47;;;0.47;;
15383;SDS011;7790;53.022;12.968;2024-03-25T04:36:13;0.60;;;0.60;;
15383;SDS011;7790;53.022;12.968;2024-03-25T04:40:14;0.60;;;0.50;;
15383;SDS011;7790;53.022;12.968;2024-03-25T04:44:15;0.73;;;0.60;;
15383;SDS011;7790;53.022;12.968;2024-03-25T04:48:18;0.83;;;0.30;;
15383;SDS011;7790;53.022;12.968;2024-03-25T04:52:19;0.40;;;0.40;;
15383;SDS011;7790;53.022;12.968;2024-03-25T04:56:23;0.37;;;0.37;;
15383;SDS011;7790;53.022;12.968;2024-03-25T05:00:24;0.80;;;0.50;;
15383;SDS011;7790;53.022;12.968;2024-03-25T05:04:25;0.30;;;0.30;;
15383;SDS011;7790;53.022;12.968;2024-03-25T05:08:25;0.43;;;0.30;;
15383;SDS011;7790;53.022;12.968;2024-03-25T05:12:26;0.30;;;0.30;;
15383;SDS011;7790;53.022;12.968;2024-03-25T05:16:30;3.00;;;0.70;;
15383;SDS011;7790;53.022;12.968;2024-03-25T05:20:31;2.90;;;0.70;;
15383;SDS011;7790;53.022;12.968;2024-03-25T05:24:31;1.90;;;0.60;;
15383;SDS011;7790;53.022;12.968;2024-03-25T05:28:32;1.83;;;0.53;;
15383;SDS011;7790;53.022;12.968;2024-03-25T05:32:33;1.87;;;0.73;;
15383;SDS011;7790;53.022;12.968;2024-03-25T05:36:34;12.10;;;1.10;;
15383;SDS011;7790;53.022;12.968;2024-03-25T05:40:35;5.10;;;0.90;;
15383;SDS011;7790;53.022;12.968;2024-03-25T05:44:36;4.87;;;0.80;;
15383;SDS011;7790;53.022;12.968;2024-03-25T05:48:37;2.67;;;0.80;;
15383;SDS011;7790;53.022;12.968;2024-03-25T05:52:38;3.50;;;0.70;;
15383;SDS011;7790;53.022;12.968;2024-03-25T05:56:39;0.90;;;0.67;;
15383;SDS011;7790;53.022;12.968;2024-03-25T06:00:40;3.03;;;0.57;;
15383;SDS011;7790;53.022;12.968;2024-03-25T06:04:41;2.20;;;0.63;;
15383;SDS011;7790;53.022;12.968;2024-03-25T06:08:42;0.60;;;0.60;;
15383;SDS011;7790;53.022;12.968;2024-03-25T06:12:44;2.60;;;0.60;;
15383;SDS011;7790;53.022;12.968;2024-03-25T06:16:45;0.97;;;0.57;;
15383;SDS011;7790;53.022;12.968;2024-03-25T06:20:47;1.60;;;0.40;;
15383;SDS011;7790;53.022;12.968;2024-03-25T06:24:48;0.57;;;0.30;;
15383;SDS011;7790;53.022;12.968;2024-03-25T06:28:50;1.13;;;0.50;;
15383;SDS011;7790;53.022;12.968;2024-03-25T06:32:51;1.03;;;0.60;;
15383;SDS011;7790;53.022;12.968;2024-03-25T06:37:10;2.33;;;0.60;;
15383;SDS011;7790;53.022;12.968;2024-03-25T06:41:11;1.60;;;0.40;;
15383;SDS011;7790;53.022;12.968;2024-03-25T06:45:12;0.97;;;0.63;;
15383;SDS011;7790;53.022;12.968;2024-03-25T06:49:15;0.63;;;0.30;;
15383;SDS011;7790;53.022;12.968;2024-03-25T06:53:16;0.30;;;0.30;;
15383;SDS011;7790;53.022;12.968;2024-03-25T06:57:16;0.83;;;0.53;;
15383;SDS011;7790;53.022;12.968;2024-03-25T07:01:17;1.77;;;0.30;;
15383;SDS011;7790;53.022;12.968;2024-03-25T07:05:18;0.73;;;0.43;;
15383;SDS011;7790;53.022;12.968;2024-03-25T07:09:19;0.83;;;0.47;;
15383;SDS011;7790;53.022;12.968;2024-03-25T07:13:21;0.30;;;0.30;;
15383;SDS011;7790;53.022;12.968;2024-03-25T07:17:23;0.60;;;0.40;;
15383;SDS011;7790;53.022;12.968;2024-03-25T07:21:26;0.50;;;0.30;;
15383;SDS011;7790;53.022;12.968;2024-03-25T07:25:26;0.30;;;0.30;;
15383;SDS011;7790;53.022;12.968;2024-03-25T07:29:27;0.37;;;0.30;;
15383;SDS011;7790;53.022;12.968;2024-03-25T07:33:28;1.80;;;0.53;;
15383;SDS011;7790;53.022;12.968;2024-03-25T07:37:29;0.60;;;0.40;;
15383;SDS011;7790;53.022;12.968;2024-03-25T07:41:30;0.33;;;0.30;;
15383;SDS011;7790;53.022;12.968;2024-03-25T07:45:31;0.10;;;0.10;;
15383;SDS011;7790;53.022;12.968;2024-03-25T07:49:32;0.20;;;0.20;;
15383;SDS011;7790;53.022;12.968;2024-03-25T07:53:34;0.40;;;0.40;;
15383;SDS011;7790;53.022;12.968;2024-03-25T07:57:35;0.33;;;0.33;;
15383;SDS011;7790;53.022;12.968;2024-03-25T08:01:36;0.20;;;0.20;;
15383;SDS011;7790;53.022;12.968;2024-03-25T08:05:38;0.33;;;0.33;;
15383;SDS011;7790;53.022;12.968;2024-03-25T08:09:39;0.20;;;0.20;;
15383;SDS011;7790;53.022;12.968;2024-03-25T08:13:39;2.00;;;0.40;;
15383;SDS011;7790;53.022;12.968;2024-03-25T08:17:40;1.80;;;0.30;;
15383;SDS011;7790;53.022;12.968;2024-03-25T08:21:41;0.20;;;0.20;;
15383;SDS011;7790;53.022;12.968;2024-03-25T08:25:42;0.20;;;0.20;;
15383;SDS011;7790;53.022;12.968;2024-03-25T08:29:43;1.63;;;0.30;;
15383;SDS011;7790;53.022;12.968;2024-03-25T08:33:43;0.83;;;0.43;;
15383;SDS011;7790;53.022;12.968;2024-03-25T08:37:44;2.90;;;0.47;;
15383;SDS011;7790;53.022;12.968;2024-03-25T08:41:45;2.07;;;0.40;;
15383;SDS011;7790;53.022;12.968;2024-03-25T08:45:46;0.50;;;0.27;;
15383;SDS011;7790;53.022;12.968;2024-03-25T08:49:47;0.30;;;0.20;;
15383;SDS011;7790;53.022;12.968;2024-03-25T08:53:48;0.40;;;0.40;;
15383;SDS011;7790;53.022;12.968;2024-03-25T08:57:50;0.43;;;0.20;;
15383;SDS011;7790;53.022;12.968;2024-03-25T09:01:52;1.33;;;0.30;;
15383;SDS011;7790;53.022;12.968;2024-03-25T09:05:52;0.30;;;0.30;;
15383;SDS011;7790;53.022;12.968;2024-03-25T09:09:54;1.63;;;0.40;;
15383;SDS011;7790;53.022;12.968;2024-03-25T09:14:14;0.37;;;0.30;;
15383;SDS011;7790;53.022;12.968;2024-03-25T09:18:14;0.83;;;0.27;;
15383;SDS011;7790;53.022;12.968;2024-03-25T09:22:15;0.37;;;0.37;;
15383;SDS011;7790;53.022;12.968;2024-03-25T09:26:16;0.67;;;0.43;;
15383;SDS011;7790;53.022;12.968;2024-03-25T09:30:18;0.97;;;0.47;;
15383;SDS011;7790;53.022;12.968;2024-03-25T09:34:19;0.30;;;0.30;;
15383;SDS011;7790;53.022;12.968;2024-03-25T09:38:20;0.80;;;0.40;;
15383;SDS011;7790;53.022;12.968;2024-03-25T09:42:27;1.13;;;0.40;;
15383;SDS011;7790;53.022;12.968;2024-03-25T09:46:34;0.60;;;0.47;;
15383;SDS011;7790;53.022;12.968;2024-03-25T09:50:37;1.97;;;0.40;;
15383;SDS011;7790;53.022;12.968;2024-03-25T09:54:40;2.20;;;0.30;;
15383;SDS011;7790;53.022;12.968;2024-03-25T09:58:40;0.50;;;0.20;;
15383;SDS011;7790;53.022;12.968;2024-03-25T10:02:44;0.63;;;0.40;;
15383;SDS011;7790;53.022;12.968;2024-03-25T10:06:45;1.13;;;0.20;;
15383;SDS011;7790;53.022;12.968;2024-03-25T10:10:46;0.30;;;0.20;;
15383;SDS011;7790;53.022;12.968;2024-03-25T10:14:47;0.73;;;0.30;;
15383;SDS011;7790;53.022;12.968;2024-03-25T10:18:48;0.67;;;0.37;;
15383;SDS011;7790;53.022;12.968;2024-03-25T10:22:48;0.63;;;0.43;;
15383;SDS011;7790;53.022;12.968;2024-03-25T10:26:49;0.37;;;0.20;;
15383;SDS011;7790;53.022;12.968;2024-03-25T10:30:51;0.43;;;0.30;;
15383;SDS011;7790;53.022;12.968;2024-03-25T10:34:52;0.30;;;0.30;;
15383;SDS011;7790;53.022;12.968;2024-03-25T10:38:54;0.30;;;0.30;;
15383;SDS011;7790;53.022;12.968;2024-03-25T10:47:05;0.23;;;0.23;;
15383;SDS011;7790;53.022;12.968;2024-03-25T10:51:08;0.20;;;0.20;;
15383;SDS011;7790;53.022;12.968;2024-03-25T10:55:10;0.30;;;0.30;;
15383;SDS011;7790;53.022;12.968;2024-03-25T10:59:12;0.27;;;0.23;;
15383;SDS011;7790;53.022;12.968;2024-03-25T11:03:13;0.53;;;0.23;;
15383;SDS011;7790;53.022;12.968;2024-03-25T11:07:14;0.67;;;0.30;;
15383;SDS011;7790;53.022;12.968;2024-03-25T11:11:16;0.40;;;0.20;;
15383;SDS011;7790;53.022;12.968;2024-03-25T11:15:16;0.43;;;0.40;;
15383;SDS011;7790;53.022;12.968;2024-03-25T11:19:18;0.30;;;0.20;;
15383;SDS011;7790;53.022;12.968;2024-03-25T11:23:19;0.43;;;0.30;;
15383;SDS011;7790;53.022;12.968;2024-03-25T11:27:25;0.43;;;0.40;;
15383;SDS011;7790;53.022;12.968;2024-03-25T11:31:28;0.40;;;0.30;;
15383;SDS011;7790;53.022;12.968;2024-03-25T11:35:37;0.33;;;0.33;;
15383;SDS011;7790;53.022;12.968;2024-03-25T11:39:38;1.47;;;0.40;;
15383;SDS011;7790;53.022;12.968;2024-03-25T11:43:39;1.20;;;0.53;;
15383;SDS011;7790;53.022;12.968;2024-03-25T11:47:42;1.47;;;0.33;;
15383;SDS011;7790;53.022;12.968;2024-03-25T11:51:44;1.70;;;0.50;;
15383;SDS011;7790;53.022;12.968;2024-03-25T11:55:46;0.40;;;0.40;;
15383;SDS011;7790;53.022;12.968;2024-03-25T11:59:48;0.40;;;0.30;;
15383;SDS011;7790;53.022;12.968;2024-03-25T12:03:49;0.30;;;0.30;;
15383;SDS011;7790;53.022;12.968;2024-03-25T12:07:51;0.30;;;0.30;;
15383;SDS011;7790;53.022;12.968;2024-03-25T12:11:52;0.90;;;0.40;;
15383;SDS011;7790;53.022;12.968;2024-03-25T12:15:56;0.20;;;0.20;;
15383;SDS011;7790;53.022;12.968;2024-03-25T12:20:06;0.73;;;0.20;;
15383;SDS011;7790;53.022;12.968;2024-03-25T12:24:09;1.30;;;0.20;;
15383;SDS011;7790;53.022;12.968;2024-03-25T12:28:11;1.33;;;0.40;;
15383;SDS011;7790;53.022;12.968;2024-03-25T12:32:12;0.40;;;0.40;;
15383;SDS011;7790;53.022;12.968;2024-03-25T12:36:13;1.03;;;0.33;;
15383;SDS011;7790;53.022;12.968;2024-03-25T12:40:25;0.10;;;0.10;;
15383;SDS011;7790;53.022;12.968;2024-03-25T12:44:27;0.33;;;0.33;;
15383;SDS011;7790;53.022;12.968;2024-03-25T12:48:28;0.43;;;0.30;;
15383;SDS011;7790;53.022;12.968;2024-03-25T12:52:28;0.57;;;0.20;;
15383;SDS011;7790;53.022;12.968;2024-03-25T12:56:29;0.30;;;0.30;;
15383;SDS011;7790;53.022;12.968;2024-03-25T13:00:30;0.53;;;0.27;;
15383;SDS011;7790;53.022;12.968;2024-03-25T13:04:31;0.30;;;0.20;;
15383;SDS011;7790;53.022;12.968;2024-03-25T13:08:32;0.73;;;0.50;;
15383;SDS011;7790;53.022;12.968;2024-03-25T13:12:33;0.20;;;0.20;;
15383;SDS011;7790;53.022;12.968;2024-03-25T13:16:34;0.53;;;0.20;;
15383;SDS011;7790;53.022;12.968;2024-03-25T13:20:35;0.20;;;0.20;;
15383;SDS011;7790;53.022;12.968;2024-03-25T13:24:36;0.40;;;0.37;;
15383;SDS011;7790;53.022;12.968;2024-03-25T13:28:37;0.50;;;0.20;;
15383;SDS011;7790;53.022;12.968;2024-03-25T13:32:38;0.20;;;0.20;;
15383;SDS011;7790;53.022;12.968;2024-03-25T13:36:39;0.47;;;0.20;;
15383;SDS011;7790;53.022;12.968;2024-03-25T13:40:39;0.30;;;0.30;;
15383;SDS011;7790;53.022;12.968;2024-03-25T13:44:40;1.07;;;0.40;;
15383;SDS011;7790;53.022;12.968;2024-03-25T13:48:41;0.53;;;0.27;;
15383;SDS011;7790;53.022;12.968;2024-03-25T13:52:42;0.53;;;0.27;;
15383;SDS011;7790;53.022;12.968;2024-03-25T13:56:43;1.80;;;0.40;;
15383;SDS011;7790;53.022;12.968;2024-03-25T14:00:45;1.47;;;0.30;;
15383;SDS011;7790;53.022;12.968;2024-03-25T14:04:46;0.33;;;0.30;;
15383;SDS011;7790;53.022;12.968;2024-03-25T14:08:47;0.20;;;0.20;;
15383;SDS011;7790;53.022;12.968;2024-03-25T14:12:48;0.60;;;0.40;;
15383;SDS011;7790;53.022;12.968;2024-03-25T14:16:49;1.77;;;0.37;;
15383;SDS011;7790;53.022;12.968;2024-03-25T14:20:53;5.70;;;0.40;;
15383;SDS011;7790;53.022;12.968;2024-03-25T14:24:53;0.87;;;0.50;;
15383;SDS011;7790;53.022;12.968;2024-03-25T14:28:57;1.27;;;0.30;;
15383;SDS011;7790;53.022;12.968;2024-03-25T14:32:59;1.30;;;0.27;;
15383;SDS011;7790;53.022;12.968;2024-03-25T14:37:00;0.43;;;0.43;;
15383;SDS011;7790;53.022;12.968;2024-03-25T14:41:04;0.13;;;0.13;;
15383;SDS011;7790;53.022;12.968;2024-03-25T14:45:05;0.40;;;0.20;;
15383;SDS011;7790;53.022;12.968;2024-03-25T14:49:07;0.67;;;0.37;;
15383;SDS011;7790;53.022;12.968;2024-03-25T14:53:08;0.30;;;0.30;;
15383;SDS011;7790;53.022;12.968;2024-03-25T14:57:08;0.50;;;0.50;;
15383;SDS011;7790;53.022;12.968;2024-03-25T15:01:09;0.40;;;0.40;;
15383;SDS011;7790;53.022;12.968;2024-03-25T15:05:10;0.50;;;0.40;;
15383;SDS011;7790;53.022;12.968;2024-03-25T15:09:11;0.30;;;0.30;;
15383;SDS011;7790;53.022;12.968;2024-03-25T15:13:12;0.53;;;0.40;;
15383;SDS011;7790;53.022;12.968;2024-03-25T15:17:13;0.93;;;0.40;;
15383;SDS011;7790;53.022;12.968;2024-03-25T15:21:14;1.80;;;0.40;;
15383;SDS011;7790;53.022;12.968;2024-03-25T15:25:15;0.30;;;0.30;;
15383;SDS011;7790;53.022;12.968;2024-03-25T15:29:16;1.70;;;0.33;;
15383;SDS011;7790;53.022;12.968;2024-03-25T15:33:16;4.50;;;0.50;;
15383;SDS011;7790;53.022;12.968;2024-03-25T15:37:18;2.23;;;0.40;;
15383;SDS011;7790;53.022;12.968;2024-03-25T15:41:18;3.33;;;0.40;;
15383;SDS011;7790;53.022;12.968;2024-03-25T15:45:19;1.73;;;0.53;;
15383;SDS011;7790;53.022;12.968;2024-03-25T15:49:20;0.67;;;0.50;;
15383;SDS011;7790;53.022;12.968;2024-03-25T15:53:21;2.00;;;0.40;;
15383;SDS011;7790;53.022;12.968;2024-03-25T15:57:22;0.40;;;0.40;;
15383;SDS011;7790;53.022;12.968;2024-03-25T16:01:23;1.93;;;0.43;;
15383;SDS011;7790;53.022;12.968;2024-03-25T16:05:24;2.13;;;0.60;;
15383;SDS011;7790;53.022;12.968;2024-03-25T16:09:28;0.60;;;0.60;;
15383;SDS011;7790;53.022;12.968;2024-03-25T16:13:30;3.00;;;0.60;;
15383;SDS011;7790;53.022;12.968;2024-03-25T16:17:32;7.10;;;1.00;;
15383;SDS011;7790;53.022;12.968;2024-03-25T16:21:33;10.67;;;1.30;;
15383;SDS011;7790;53.022;12.968;2024-03-25T16:25:33;6.33;;;0.97;;
15383;SDS011;7790;53.022;12.968;2024-03-25T16:29:34;6.53;;;1.50;;
15383;SDS011;7790;53.022;12.968;2024-03-25T16:33:35;5.17;;;1.63;;
15383;SDS011;7790;53.022;12.968;2024-03-25T16:37:36;8.03;;;1.87;;
15383;SDS011;7790;53.022;12.968;2024-03-25T16:41:37;10.37;;;1.77;;
15383;SDS011;7790;53.022;12.968;2024-03-25T16:45:39;8.60;;;1.73;;
15383;SDS011;7790;53.022;12.968;2024-03-25T16:49:40;7.60;;;1.60;;
15383;SDS011;7790;53.022;12.968;2024-03-25T16:53:41;7.43;;;1.60;;
15383;SDS011;7790;53.022;12.968;2024-03-25T16:57:41;6.80;;;1.60;;
15383;SDS011;7790;53.022;12.968;2024-03-25T17:01:42;2.37;;;1.33;;
15383;SDS011;7790;53.022;12.968;2024-03-25T17:05:43;6.33;;;1.73;;
15383;SDS011;7790;53.022;12.968;2024-03-25T17:09:44;12.03;;;1.80;;
15383;SDS011;7790;53.022;12.968;2024-03-25T17:13:45;12.33;;;1.83;;
15383;SDS011;7790;53.022;12.968;2024-03-25T17:17:45;10.63;;;1.83;;
15383;SDS011;7790;53.022;12.968;2024-03-25T17:21:47;17.03;;;1.57;;
15383;SDS011;7790;53.022;12.968;2024-03-25T17:25:48;5.77;;;1.20;;
15383;SDS011;7790;53.022;12.968;2024-03-25T17:29:49;7.77;;;2.03;;
15383;SDS011;7790;53.022;12.968;2024-03-25T17:33:49;8.43;;;1.77;;
15383;SDS011;7790;53.022;12.968;2024-03-25T17:37:50;15.23;;;2.40;;
15383;SDS011;7790;53.022;12.968;2024-03-25T17:41:51;8.00;;;3.27;;
15383;SDS011;7790;53.022;12.968;2024-03-25T17:45:52;10.67;;;3.27;;
15383;SDS011;7790;53.022;12.968;2024-03-25T17:49:53;9.93;;;3.20;;
15383;SDS011;7790;53.022;12.968;2024-03-25T17:53:55;10.13;;;3.70;;
15383;SDS011;7790;53.022;12.968;2024-03-25T17:57:56;20.47;;;4.30;;
15383;SDS011;7790;53.022;12.968;2024-03-25T18:01:57;13.37;;;3.80;;
15383;SDS011;7790;53.022;12.968;2024-03-25T18:05:57;15.93;;;3.47;;
15383;SDS011;7790;53.022;12.968;2024-03-25T18:09:59;16.40;;;3.90;;
15383;SDS011;7790;53.022;12.968;2024-03-25T18:14:00;18.27;;;3.63;;
15383;SDS011;7790;53.022;12.968;2024-03-25T18:18:01;7.80;;;2.77;;
15383;SDS011;7790;53.022;12.968;2024-03-25T18:22:02;12.67;;;3.93;;
15383;SDS011;7790;53.022;12.968;2024-03-25T18:26:03;11.63;;;3.33;;
15383;SDS011;7790;53.022;12.968;2024-03-25T18:30:04;15.60;;;2.93;;
15383;SDS011;7790;53.022;12.968;2024-03-25T18:34:07;11.43;;;3.50;;
15383;SDS011;7790;53.022;12.968;2024-03-25T18:38:08;13.23;;;2.67;;
15383;SDS011;7790;53.022;12.968;2024-03-25T18:42:09;12.17;;;3.23;;
15383;SDS011;7790;53.022;12.968;2024-03-25T18:46:10;8.30;;;2.97;;
15383;SDS011;7790;53.022;12.968;2024-03-25T18:50:11;9.20;;;2.60;;
15383;SDS011;7790;53.022;12.968;2024-03-25T18:54:12;9.37;;;2.40;;
15383;SDS011;7790;53.022;12.968;2024-03-25T18:58:13;10.60;;;2.67;;
15383;SDS011;7790;53.022;12.968;2024-03-25T19:02:13;16.17;;;3.00;;
15383;SDS011;7790;53.022;12.968;2024-03-25T19:06:14;12.53;;;2.30;;
15383;SDS011;7790;53.022;12.968;2024-03-25T19:10:15;10.63;;;2.47;;
15383;SDS011;7790;53.022;12.968;2024-03-25T19:14:17;5.87;;;2.10;;
15383;SDS011;7790;53.022;12.968;2024-03-25T19:18:18;10.20;;;2.30;;
15383;SDS011;7790;53.022;12.968;2024-03-25T19:22:20;6.57;;;2.00;;
15383;SDS011;7790;53.022;12.968;2024-03-25T19:26:23;4.77;;;2.00;;
15383;SDS011;7790;53.022;12.968;2024-03-25T19:30:25;4.17;;;1.87;;
15383;SDS011;7790;53.022;12.968;2024-03-25T19:34:26;5.23;;;1.93;;
15383;SDS011;7790;53.022;12.968;2024-03-25T19:38:27;6.23;;;1.90;;
15383;SDS011;7790;53.022;12.968;2024-03-25T19:42:27;2.93;;;1.40;;
15383;SDS011;7790;53.022;12.968;2024-03-25T19:46:28;2.97;;;1.33;;
15383;SDS011;7790;53.022;12.968;2024-03-25T19:50:29;6.00;;;1.60;;
15383;SDS011;7790;53.022;12.968;2024-03-25T19:54:30;5.13;;;1.47;;
15383;SDS011;7790;53.022;12.968;2024-03-25T19:58:31;4.03;;;1.30;;
15383;SDS011;7790;53.022;12.968;2024-03-25T20:02:32;6.07;;;1.60;;
15383;SDS011;7790;53.022;12.968;2024-03-25T20:06:32;6.17;;;1.33;;
15383;SDS011;7790;53.022;12.968;2024-03-25T20:10:33;2.60;;;1.33;;
15383;SDS011;7790;53.022;12.968;2024-03-25T20:14:34;4.60;;;1.47;;
15383;SDS011;7790;53.022;12.968;2024-03-25T20:18:35;2.43;;;1.30;;
15383;SDS011;7790;53.022;12.968;2024-03-25T20:22:36;4.90;;;1.60;;
15383;SDS011;7790;53.022;12.968;2024-03-25T20:26:37;3.20;;;1.00;;
15383;SDS011;7790;53.022;12.968;2024-03-25T20:30:38;3.50;;;1.10;;
15383;SDS011;7790;53.022;12.968;2024-03-25T20:34:39;2.80;;;1.00;;
15383;SDS011;7790;53.022;12.968;2024-03-25T20:38:40;1.30;;;0.90;;
15383;SDS011;7790;53.022;12.968;2024-03-25T20:42:41;1.63;;;1.03;;
15383;SDS011;7790;53.022;12.968;2024-03-25T20:46:41;2.20;;;1.00;;
15383;SDS011;7790;53.022;12.968;2024-03-25T20:50:42;1.43;;;1.00;;
15383;SDS011;7790;53.022;12.968;2024-03-25T20:54:43;1.80;;;1.07;;
15383;SDS011;7790;53.022;12.968;2024-03-25T20:58:44;2.00;;;1.13;;
15383;SDS011;7790;53.022;12.968;2024-03-25T21:02:45;1.67;;;1.20;;
15383;SDS011;7790;53.022;12.968;2024-03-25T21:06:46;2.00;;;1.10;;
15383;SDS011;7790;53.022;12.968;2024-03-25T21:10:46;1.63;;;1.17;;
15383;SDS011;7790;53.022;12.968;2024-03-25T21:14:47;1.37;;;0.90;;
15383;SDS011;7790;53.022;12.968;2024-03-25T21:18:48;1.10;;;0.93;;
15383;SDS011;7790;53.022;12.968;2024-03-25T21:22:49;1.67;;;1.00;;
15383;SDS011;7790;53.022;12.968;2024-03-25T21:26:50;1.00;;;0.90;;
15383;SDS011;7790;53.022;12.968;2024-03-25T21:30:51;2.10;;;1.13;;
15383;SDS011;7790;53.022;12.968;2024-03-25T21:34:52;1.77;;;0.93;;
15383;SDS011;7790;53.022;12.968;2024-03-25T21:38:53;0.80;;;0.70;;
15383;SDS011;7790;53.022;12.968;2024-03-25T21:42:54;1.10;;;0.70;;
15383;SDS011;7790;53.022;12.968;2024-03-25T21:46:55;1.67;;;0.97;;
15383;SDS011;7790;53.022;12.968;2024-03-25T21:50:56;0.83;;;0.80;;
15383;SDS011;7790;53.022;12.968;2024-03-25T21:54:57;1.77;;;0.70;;
15383;SDS011;7790;53.022;12.968;2024-03-25T21:58:58;0.70;;;0.70;;
15383;SDS011;7790;53.022;12.968;2024-03-25T22:02:59;1.13;;;0.83;;
15383;SDS011;7790;53.022;12.968;2024-03-25T22:07:00;1.60;;;0.60;;
15383;SDS011;7790;53.022;12.968;2024-03-25T22:11:00;0.60;;;0.60;;
15383;SDS011;7790;53.022;12.968;2024-03-25T22:15:01;0.60;;;0.60;;
15383;SDS011;7790;53.022;12.968;2024-03-25T22:19:02;0.80;;;0.70;;
15383;SDS011;7790;53.022;12.968;2024-03-25T22:23:03;0.70;;;0.70;;
15383;SDS011;7790;53.022;12.968;2024-03-25T22:27:04;0.63;;;0.63;;
15383;SDS011;7790;53.022;12.968;2024-03-25T22:31:05;1.17;;;0.80;;
15383;SDS011;7790;53.022;12.968;2024-03-25T22:35:05;1.80;;;0.87;;
15383;SDS011;7790;53.022;12.968;2024-03-25T22:39:07;0.93;;;0.60;;
15383;SDS011;7790;53.022;12.968;2024-03-25T22:43:09;1.00;;;0.70;;
15383;SDS011;7790;53.022;12.968;2024-03-25T22:47:10;1.07;;;0.90;;
15383;SDS011;7790;53.022;12.968;2024-03-25T22:51:11;1.03;;;0.60;;
15383;SDS011;7790;53.022;12.968;2024-03-25T22:55:12;1.10;;;0.80;;
15383;SDS011;7790;53.022;12.968;2024-03-25T22:59:13;1.13;;;0.70;;
15383;SDS011;7790;53.022;12.968;2024-03-25T23:03:14;0.83;;;0.73;;
15383;SDS011;7790;53.022;12.968;2024-03-25T23:07:15;0.60;;;0.60;;
15383;SDS011;7790;53.022;12.968;2024-03-25T23:11:17;0.90;;;0.70;;
15383;SDS011;7790;53.022;12.968;2024-03-25T23:15:18;0.97;;;0.70;;
15383;SDS011;7790;53.022;12.968;2024-03-25T23:19:19;0.63;;;0.63;;
15383;SDS011;7790;53.022;12.968;2024-03-25T23:23:20;0.50;;;0.50;;
15383;SDS011;7790;53.022;12.968;2024-03-25T23:27:20;0.50;;;0.50;;
15383;SDS011;7790;53.022;12.968;2024-03-25T23:31:21;0.50;;;0.50;;
15383;SDS011;7790;53.022;12.968;2024-03-25T23:35:22;0.70;;;0.63;;
15383;SDS011;7790;53.022;12.968;2024-03-25T23:39:23;0.70;;;0.60;;
15383;SDS011;7790;53.022;12.968;2024-03-25T23:43:24;0.90;;;0.60;;
15383;SDS011;7790;53.022;12.968;2024-03-25T23:47:26;0.70;;;0.70;;
15383;SDS011;7790;53.022;12.968;2024-03-25T23:51:27;0.50;;;0.47;;
15383;SDS011;7790;53.022;12.968;2024-03-25T23:55:28;0.90;;;0.63;;
15383;SDS011;7790;53.022;12.968;2024-03-25T23:59:29;0.60;;;0.60;;
